createdAt,value
2018-06-08T00:00:09.548Z,21.60
2018-06-08T00:01:09.542Z,21.80
2018-06-08T00:02:09.532Z,21.50
2018-06-08T00:03:09.519Z,21.40
2018-06-08T00:04:09.508Z,21.50
2018-06-08T00:05:09.524Z,22.20
2018-06-08T00:06:09.486Z,22.80
2018-06-08T00:07:09.477Z,24.60
2018-06-08T00:08:09.469Z,25.90
2018-06-08T00:09:09.455Z,26.60
2018-06-08T00:10:09.444Z,25.10
2018-06-08T00:11:09.435Z,27.50
2018-06-08T00:12:09.423Z,26.70
2018-06-08T00:13:09.412Z,28.60
2018-06-08T00:14:09.401Z,27.80
2018-06-08T00:15:09.390Z,25.70
2018-06-08T00:16:09.383Z,26.00
2018-06-08T00:17:09.370Z,23.90
2018-06-08T00:18:09.360Z,24.10
2018-06-08T00:19:09.348Z,22.50
2018-06-08T00:20:09.339Z,22.10
2018-06-08T00:21:09.336Z,19.50
2018-06-08T00:22:09.315Z,21.80
2018-06-08T00:23:09.310Z,21.20
2018-06-08T00:24:09.297Z,21.00
2018-06-08T00:25:09.284Z,20.10
2018-06-08T00:26:09.272Z,19.80
2018-06-08T00:27:09.263Z,19.40
2018-06-08T00:28:09.270Z,19.90
2018-06-08T00:29:09.241Z,19.00
2018-06-08T00:30:09.232Z,19.60
2018-06-08T00:31:09.221Z,20.10
2018-06-08T00:32:09.207Z,20.10
2018-06-08T00:33:09.198Z,20.70
2018-06-08T00:34:09.189Z,20.30
2018-06-08T00:35:09.177Z,19.60
2018-06-08T00:36:09.165Z,20.10
2018-06-08T00:37:09.155Z,20.10
2018-06-08T00:38:09.145Z,19.00
2018-06-08T00:39:09.135Z,18.90
2018-06-08T00:40:09.121Z,20.50
2018-06-08T00:41:09.167Z,19.50
2018-06-08T00:42:09.102Z,19.60
2018-06-08T00:43:09.091Z,20.50
2018-06-08T00:44:09.078Z,20.60
2018-06-08T00:45:09.069Z,20.30
2018-06-08T00:46:09.056Z,20.10
2018-06-08T00:47:09.045Z,20.30
2018-06-08T00:48:09.032Z,20.40
2018-06-08T00:49:09.024Z,19.90
2018-06-08T00:50:09.016Z,20.40
2018-06-08T00:51:09.001Z,21.00
2018-06-08T00:52:08.992Z,21.50
2018-06-08T00:53:08.984Z,20.70
2018-06-08T00:54:08.969Z,21.80
2018-06-08T00:55:08.959Z,22.10
2018-06-08T00:56:08.948Z,22.30
2018-06-08T00:57:08.939Z,21.80
2018-06-08T00:58:08.924Z,22.60
2018-06-08T00:59:08.915Z,22.80
2018-06-08T01:00:08.905Z,23.30
2018-06-08T01:01:08.896Z,23.10
2018-06-08T01:02:08.882Z,23.10
2018-06-08T01:03:08.870Z,24.00
2018-06-08T01:04:08.860Z,24.00
2018-06-08T01:05:08.848Z,24.70
2018-06-08T01:06:08.837Z,26.20
2018-06-08T01:07:08.827Z,25.70
2018-06-08T01:08:08.812Z,25.90
2018-06-08T01:09:08.805Z,27.30
2018-06-08T01:10:08.793Z,25.40
2018-06-08T01:11:08.782Z,26.50
2018-06-08T01:12:08.771Z,26.80
2018-06-08T01:13:08.761Z,26.70
2018-06-08T01:14:08.748Z,29.80
2018-06-08T01:15:08.747Z,29.60
2018-06-08T01:16:08.725Z,29.50
2018-06-08T01:17:08.714Z,29.60
2018-06-08T01:18:08.704Z,30.00
2018-06-08T01:19:08.701Z,29.70
2018-06-08T01:20:08.681Z,29.60
2018-06-08T01:21:08.673Z,30.60
2018-06-08T01:22:08.659Z,29.30
2018-06-08T01:23:08.652Z,30.50
2018-06-08T01:24:08.637Z,31.30
2018-06-08T01:25:08.627Z,30.80
2018-06-08T01:26:08.614Z,32.10
2018-06-08T01:27:08.606Z,31.30
2018-06-08T01:28:08.592Z,32.30
2018-06-08T01:29:08.582Z,31.90
2018-06-08T01:30:08.570Z,31.80
2018-06-08T01:31:08.558Z,33.10
2018-06-08T01:32:08.548Z,32.70
2018-06-08T01:33:08.538Z,33.40
2018-06-08T01:34:08.524Z,33.30
2018-06-08T01:35:08.515Z,32.20
2018-06-08T01:36:08.505Z,32.70
2018-06-08T01:37:08.488Z,33.10
2018-06-08T01:38:08.485Z,33.60
2018-06-08T01:39:08.470Z,37.20
2018-06-08T01:40:08.458Z,35.70
2018-06-08T01:41:08.456Z,34.80
2018-06-08T01:42:08.436Z,34.30
2018-06-08T01:43:08.425Z,35.40
2018-06-08T01:44:08.416Z,35.90
2018-06-08T01:45:08.402Z,36.00
2018-06-08T01:46:08.391Z,37.80
2018-06-08T01:47:08.379Z,36.50
2018-06-08T01:48:08.372Z,37.10
2018-06-08T01:49:08.357Z,39.20
2018-06-08T01:50:08.346Z,37.90
2018-06-08T01:51:08.338Z,41.10
2018-06-08T01:52:08.328Z,41.60
2018-06-08T01:53:08.314Z,40.60
2018-06-08T01:54:08.301Z,42.00
2018-06-08T01:55:08.295Z,40.10
2018-06-08T01:56:08.279Z,40.20
2018-06-08T01:57:08.268Z,40.40
2018-06-08T01:58:08.256Z,40.50
2018-06-08T01:59:08.248Z,40.50
2018-06-08T02:00:08.234Z,41.30
2018-06-08T02:01:08.223Z,42.50
2018-06-08T02:02:08.211Z,42.50
2018-06-08T02:03:08.199Z,42.60
2018-06-08T02:04:08.188Z,42.00
2018-06-08T02:05:08.178Z,41.00
2018-06-08T02:06:08.166Z,41.80
2018-06-08T02:07:08.156Z,41.80
2018-06-08T02:08:08.146Z,40.90
2018-06-08T02:09:08.132Z,42.60
2018-06-08T02:10:08.120Z,41.20
2018-06-08T02:11:08.112Z,41.50
2018-06-08T02:12:08.103Z,40.20
2018-06-08T02:13:08.088Z,41.20
2018-06-08T02:14:08.075Z,40.90
2018-06-08T02:15:08.075Z,41.40
2018-06-08T02:16:08.053Z,41.00
2018-06-08T02:17:08.133Z,40.60
2018-06-08T02:18:08.056Z,40.20
2018-06-08T02:19:08.044Z,42.90
2018-06-08T02:20:08.032Z,42.00
2018-06-08T02:21:08.021Z,40.40
2018-06-08T02:22:08.009Z,41.70
2018-06-08T02:24:39.794Z,42.60
2018-06-08T02:25:39.765Z,40.80
2018-06-08T02:27:33.220Z,42.80
2018-06-08T02:28:32.792Z,42.50
2018-06-08T02:30:25.907Z,43.30
2018-06-08T02:31:25.846Z,44.00
2018-06-08T02:33:18.915Z,42.30
2018-06-08T02:34:18.882Z,41.20
2018-06-08T02:36:11.982Z,43.00
2018-06-08T02:37:11.913Z,43.30
2018-06-08T02:39:04.982Z,43.80
2018-06-08T02:40:04.943Z,43.00
2018-06-08T02:41:58.038Z,41.80
2018-06-08T02:42:57.973Z,42.50
2018-06-08T02:44:52.578Z,44.30
2018-06-08T02:45:52.500Z,44.80
2018-06-08T02:47:45.583Z,42.90
2018-06-08T02:48:45.540Z,45.40
2018-06-08T02:50:38.640Z,44.70
2018-06-08T02:51:38.581Z,44.60
2018-06-08T02:53:31.674Z,44.60
2018-06-08T02:54:31.621Z,45.40
2018-06-08T02:56:24.711Z,44.70
2018-06-08T02:57:24.678Z,44.80
2018-06-08T02:59:18.158Z,44.10
2018-06-08T03:00:17.712Z,44.20
2018-06-08T03:02:10.808Z,43.00
2018-06-08T03:03:10.749Z,44.20
2018-06-08T03:05:03.855Z,44.60
2018-06-08T03:06:03.814Z,45.40
2018-06-08T03:07:03.807Z,43.30
2018-06-08T03:08:03.794Z,46.30
2018-06-08T03:09:03.807Z,44.40
2018-06-08T03:10:03.768Z,46.30
2018-06-08T03:11:03.761Z,46.30
2018-06-08T03:12:03.791Z,45.40
2018-06-08T03:13:03.734Z,47.00
2018-06-08T03:14:03.731Z,46.90
2018-06-08T03:15:03.710Z,46.70
2018-06-08T03:16:03.699Z,47.30
2018-06-08T03:17:03.687Z,43.90
2018-06-08T03:18:03.681Z,44.50
2018-06-08T03:19:03.668Z,44.60
2018-06-08T03:20:03.655Z,45.30
2018-06-08T03:21:03.643Z,44.90
2018-06-08T03:22:03.634Z,46.80
2018-06-08T03:23:03.624Z,46.30
2018-06-08T03:24:03.607Z,44.40
2018-06-08T03:25:03.596Z,44.40
2018-06-08T03:26:03.589Z,46.40
2018-06-08T03:27:03.574Z,45.80
2018-06-08T03:28:03.570Z,45.90
2018-06-08T03:29:03.556Z,45.10
2018-06-08T03:30:03.545Z,47.10
2018-06-08T03:31:03.527Z,44.70
2018-06-08T03:32:03.516Z,46.00
2018-06-08T03:33:03.508Z,47.90
2018-06-08T03:34:03.496Z,46.00
2018-06-08T03:35:03.487Z,46.20
2018-06-08T03:36:03.544Z,46.40
2018-06-08T03:37:03.462Z,44.90
2018-06-08T03:38:03.460Z,46.20
2018-06-08T03:39:03.442Z,46.50
2018-06-08T03:40:03.426Z,45.50
2018-06-08T03:41:03.420Z,45.30
2018-06-08T03:42:03.401Z,46.90
2018-06-08T03:43:03.391Z,47.60
2018-06-08T03:44:03.381Z,46.60
2018-06-08T03:45:03.378Z,47.10
2018-06-08T03:46:03.360Z,46.30
2018-06-08T03:47:03.349Z,46.60
2018-06-08T03:48:03.337Z,45.90
2018-06-08T03:49:03.359Z,46.40
2018-06-08T03:50:03.321Z,45.50
2018-06-08T03:51:03.306Z,44.50
2018-06-08T03:52:03.290Z,45.40
2018-06-08T03:53:03.282Z,46.70
2018-06-08T03:54:03.267Z,48.20
2018-06-08T03:55:03.266Z,46.80
2018-06-08T03:56:03.299Z,46.70
2018-06-08T03:57:03.238Z,47.20
2018-06-08T03:58:03.224Z,47.70
2018-06-08T03:59:03.210Z,46.50
2018-06-08T04:00:03.198Z,47.30
2018-06-08T04:01:03.196Z,46.40
2018-06-08T04:02:03.177Z,49.10
2018-06-08T04:03:03.169Z,46.60
2018-06-08T04:04:03.153Z,47.10
2018-06-08T04:05:03.144Z,45.00
2018-06-08T04:06:03.137Z,44.00
2018-06-08T04:07:03.123Z,46.00
2018-06-08T04:08:03.118Z,45.10
2018-06-08T04:09:03.101Z,46.00
2018-06-08T04:10:03.087Z,44.80
2018-06-08T04:11:03.084Z,45.80
2018-06-08T04:12:03.066Z,44.80
2018-06-08T04:13:03.154Z,46.90
2018-06-08T04:14:03.041Z,46.00
2018-06-08T04:15:03.034Z,46.40
2018-06-08T04:16:03.023Z,46.70
2018-06-08T04:17:03.013Z,47.10
2018-06-08T04:18:03.015Z,46.20
2018-06-08T04:19:02.992Z,47.40
2018-06-08T04:20:02.978Z,47.10
2018-06-08T04:21:02.974Z,46.10
2018-06-08T04:22:02.955Z,46.90
2018-06-08T04:23:02.949Z,46.70
2018-06-08T04:24:02.932Z,47.10
2018-06-08T04:25:02.922Z,47.80
2018-06-08T04:26:02.911Z,48.90
2018-06-08T04:27:02.909Z,48.70
2018-06-08T04:28:02.892Z,49.40
2018-06-08T04:29:02.873Z,50.40
2018-06-08T04:30:02.869Z,46.90
2018-06-08T04:31:02.860Z,49.00
2018-06-08T04:32:02.840Z,49.30
2018-06-08T04:33:02.982Z,47.70
2018-06-08T04:34:02.823Z,46.60
2018-06-08T04:35:02.808Z,49.70
2018-06-08T04:36:02.797Z,48.30
2018-06-08T04:37:02.787Z,47.60
2018-06-08T04:38:02.784Z,47.90
2018-06-08T04:39:02.766Z,46.30
2018-06-08T04:40:02.809Z,47.90
2018-06-08T04:41:02.744Z,46.50
2018-06-08T04:42:02.730Z,47.40
2018-06-08T04:43:02.722Z,47.90
2018-06-08T04:44:02.705Z,47.40
2018-06-08T04:45:02.709Z,47.70
2018-06-08T04:46:02.691Z,47.40
2018-06-08T04:47:02.677Z,48.10
2018-06-08T04:48:02.667Z,46.90
2018-06-08T04:49:02.656Z,48.40
2018-06-08T04:50:02.645Z,48.80
2018-06-08T04:51:02.643Z,47.20
2018-06-08T04:52:02.629Z,48.80
2018-06-08T04:53:02.610Z,47.50
2018-06-08T04:54:02.600Z,47.80
2018-06-08T04:55:02.586Z,47.00
2018-06-08T04:56:02.585Z,47.20
2018-06-08T04:57:02.570Z,46.50
2018-06-08T04:58:02.561Z,46.10
2018-06-08T04:59:02.542Z,44.50
2018-06-08T05:00:02.555Z,44.30
2018-06-08T05:01:02.543Z,45.90
2018-06-08T05:02:02.511Z,45.30
2018-06-08T05:03:02.498Z,46.80
2018-06-08T05:04:02.503Z,44.80
2018-06-08T05:05:02.507Z,44.90
2018-06-08T05:06:02.466Z,45.00
2018-06-08T05:07:02.493Z,46.00
2018-06-08T05:08:02.468Z,45.70
2018-06-08T05:09:02.473Z,47.00
2018-06-08T05:10:02.424Z,45.40
2018-06-08T05:11:02.417Z,45.00
2018-06-08T05:12:02.435Z,45.40
2018-06-08T05:13:02.399Z,49.10
2018-06-08T05:14:02.389Z,47.00
2018-06-08T05:15:02.400Z,45.10
2018-06-08T05:16:02.376Z,44.60
2018-06-08T05:17:02.399Z,44.80
2018-06-08T05:18:02.348Z,43.60
2018-06-08T05:19:02.400Z,45.30
2018-06-08T05:20:02.350Z,43.70
2018-06-08T05:21:02.331Z,43.90
2018-06-08T05:22:02.324Z,42.80
2018-06-08T05:23:02.311Z,42.90
2018-06-08T05:24:02.284Z,44.40
2018-06-08T05:25:02.287Z,43.90
2018-06-08T05:26:02.271Z,43.40
2018-06-08T05:27:02.351Z,47.60
2018-06-08T05:28:02.259Z,46.00
2018-06-08T05:29:02.237Z,45.00
2018-06-08T05:30:02.225Z,43.80
2018-06-08T05:31:02.218Z,44.40
2018-06-08T05:32:02.206Z,42.70
2018-06-08T05:33:02.295Z,44.50
2018-06-08T05:34:02.177Z,44.40
2018-06-08T05:35:02.193Z,44.30
2018-06-08T05:36:02.192Z,42.70
2018-06-08T05:37:02.163Z,45.00
2018-06-08T05:38:02.149Z,42.20
2018-06-08T05:39:02.124Z,44.80
2018-06-08T05:40:02.123Z,44.30
2018-06-08T05:41:02.115Z,43.80
2018-06-08T05:42:02.118Z,43.30
2018-06-08T05:43:02.125Z,42.70
2018-06-08T05:44:02.087Z,43.60
2018-06-08T05:45:02.105Z,41.50
2018-06-08T05:46:02.071Z,41.90
2018-06-08T05:47:02.053Z,40.70
2018-06-08T05:48:02.036Z,42.50
2018-06-08T05:49:02.034Z,40.90
2018-06-08T05:50:02.028Z,39.40
2018-06-08T05:51:02.052Z,41.70
2018-06-08T05:52:02.010Z,39.60
2018-06-08T05:53:01.991Z,40.90
2018-06-08T05:54:01.991Z,39.10
2018-06-08T05:55:02.028Z,39.60
2018-06-08T05:56:01.976Z,38.90
2018-06-08T05:57:01.976Z,39.20
2018-06-08T05:58:01.957Z,39.90
2018-06-08T05:59:01.938Z,39.40
2018-06-08T06:00:01.923Z,39.70
2018-06-08T06:01:01.929Z,40.30
2018-06-08T06:02:01.915Z,39.00
2018-06-08T06:03:01.931Z,38.80
2018-06-08T06:04:01.904Z,38.30
2018-06-08T06:05:01.879Z,38.90
2018-06-08T06:06:01.864Z,40.90
2018-06-08T06:07:01.854Z,41.30
2018-06-08T06:08:01.857Z,39.30
2018-06-08T06:09:01.843Z,40.40
2018-06-08T06:10:01.829Z,37.60
2018-06-08T06:11:01.818Z,40.50
2018-06-08T06:12:01.851Z,40.90
2018-06-08T06:13:01.843Z,39.50
2018-06-08T06:14:01.790Z,38.90
2018-06-08T06:15:01.791Z,40.00
2018-06-08T06:16:01.793Z,40.20
2018-06-08T06:17:01.754Z,40.60
2018-06-08T06:18:01.784Z,41.70
2018-06-08T06:19:01.737Z,39.80
2018-06-08T06:20:01.756Z,39.90
2018-06-08T06:21:01.772Z,41.30
2018-06-08T06:22:01.724Z,40.90
2018-06-08T06:23:01.734Z,39.70
2018-06-08T06:24:01.716Z,38.90
2018-06-08T06:25:01.713Z,39.80
2018-06-08T06:26:01.705Z,42.50
2018-06-08T06:27:01.683Z,39.90
2018-06-08T06:28:01.659Z,40.60
2018-06-08T06:29:01.668Z,40.30
2018-06-08T06:30:01.694Z,41.60
2018-06-08T06:31:01.631Z,41.80
2018-06-08T06:32:01.641Z,43.30
2018-06-08T06:33:01.638Z,41.70
2018-06-08T06:34:01.614Z,42.80
2018-06-08T06:35:01.595Z,43.40
2018-06-08T06:36:01.602Z,45.90
2018-06-08T06:37:01.582Z,41.40
2018-06-08T06:38:01.583Z,43.40
2018-06-08T06:39:01.562Z,42.80
2018-06-08T06:40:01.571Z,44.70
2018-06-08T06:41:01.531Z,43.10
2018-06-08T06:42:01.555Z,43.20
2018-06-08T06:43:01.521Z,41.50
2018-06-08T06:44:01.585Z,41.00
2018-06-08T06:45:01.503Z,43.40
2018-06-08T06:46:01.494Z,44.90
2018-06-08T06:47:01.485Z,42.90
2018-06-08T06:48:01.498Z,42.10
2018-06-08T06:49:01.482Z,40.10
2018-06-08T06:50:01.471Z,40.10
2018-06-08T06:51:01.450Z,40.30
2018-06-08T06:52:01.442Z,39.70
2018-06-08T06:53:01.444Z,40.50
2018-06-08T06:54:01.413Z,41.00
2018-06-08T06:55:01.451Z,40.20
2018-06-08T06:56:01.431Z,42.50
2018-06-08T06:57:01.398Z,41.10
2018-06-08T06:58:01.387Z,40.70
2018-06-08T06:59:01.381Z,40.10
2018-06-08T07:00:01.380Z,41.60
2018-06-08T07:01:01.362Z,42.90
2018-06-08T07:02:01.347Z,44.20
2018-06-08T07:03:01.345Z,43.50
2018-06-08T07:04:01.333Z,44.40
2018-06-08T07:05:01.346Z,43.00
2018-06-08T07:06:01.331Z,43.20
2018-06-08T07:07:01.364Z,43.50
2018-06-08T07:08:01.323Z,43.80
2018-06-08T07:09:01.311Z,43.00
2018-06-08T07:10:01.291Z,45.10
2018-06-08T07:11:01.280Z,45.40
2018-06-08T07:12:01.259Z,43.30
2018-06-08T07:13:01.271Z,42.30
2018-06-08T07:14:01.272Z,46.50
2018-06-08T07:15:01.289Z,44.40
2018-06-08T07:16:01.259Z,44.50
2018-06-08T07:17:01.224Z,45.00
2018-06-08T07:18:01.214Z,46.20
2018-06-08T07:19:01.217Z,45.80
2018-06-08T07:20:01.203Z,46.90
2018-06-08T07:21:01.204Z,50.30
2018-06-08T07:22:01.196Z,43.00
2018-06-08T07:23:01.195Z,43.40
2018-06-08T07:24:01.186Z,41.10
2018-06-08T07:25:01.182Z,44.00
2018-06-08T07:26:01.159Z,43.50
2018-06-08T07:27:01.174Z,44.80
2018-06-08T07:28:01.192Z,42.50
2018-06-08T07:29:01.133Z,43.40
2018-06-08T07:30:01.118Z,44.40
2018-06-08T07:31:01.115Z,44.80
2018-06-08T07:32:01.145Z,43.90
2018-06-08T07:33:01.093Z,42.90
2018-06-08T07:34:01.092Z,42.20
2018-06-08T07:35:01.070Z,41.90
2018-06-08T07:36:01.069Z,42.60
2018-06-08T07:37:01.171Z,41.40
2018-06-08T07:38:01.061Z,43.10
2018-06-08T07:39:01.043Z,43.80
2018-06-08T07:40:01.051Z,41.50
2018-06-08T07:41:01.052Z,41.80
2018-06-08T07:42:01.034Z,41.00
2018-06-08T07:43:01.081Z,42.40
2018-06-08T07:44:01.007Z,42.50
2018-06-08T07:45:01.012Z,41.40
2018-06-08T07:46:00.990Z,40.40
2018-06-08T07:47:00.984Z,41.60
2018-06-08T07:48:00.957Z,40.60
2018-06-08T07:49:00.950Z,41.90
2018-06-08T07:50:00.968Z,42.30
2018-06-08T07:51:00.953Z,42.30
2018-06-08T07:52:00.932Z,42.60
2018-06-08T07:53:00.914Z,42.70
2018-06-08T07:54:01.083Z,42.70
2018-06-08T07:55:00.896Z,40.20
2018-06-08T07:56:00.925Z,40.60
2018-06-08T07:57:00.883Z,41.10
2018-06-08T07:58:00.880Z,41.70
2018-06-08T07:59:00.880Z,41.70
2018-06-08T08:00:00.883Z,43.10
2018-06-08T08:01:00.849Z,41.90
2018-06-08T08:02:00.850Z,43.70
2018-06-08T08:03:00.825Z,43.70
2018-06-08T08:04:00.828Z,43.40
2018-06-08T08:05:00.816Z,43.50
2018-06-08T08:06:00.832Z,43.20
2018-06-08T08:07:00.814Z,43.20
2018-06-08T08:08:00.789Z,44.00
2018-06-08T08:09:00.777Z,42.90
2018-06-08T08:10:00.775Z,43.30
2018-06-08T08:11:00.803Z,44.60
2018-06-08T08:12:00.748Z,43.90
2018-06-08T08:13:00.743Z,44.80
2018-06-08T08:14:00.793Z,46.10
2018-06-08T08:15:00.785Z,48.40
2018-06-08T08:16:01.122Z,47.10
2018-06-08T08:17:00.735Z,47.00
2018-06-08T08:18:00.729Z,46.00
2018-06-08T08:19:00.754Z,46.80
2018-06-08T08:20:00.868Z,45.30
2018-06-08T08:21:00.688Z,45.00
2018-06-08T08:22:00.660Z,44.40
2018-06-08T08:23:00.675Z,44.50
2018-06-08T08:24:00.644Z,43.90
2018-06-08T08:25:00.636Z,43.40
2018-06-08T08:26:00.648Z,42.80
2018-06-08T08:27:00.633Z,45.10
2018-06-08T08:28:00.606Z,43.40
2018-06-08T08:29:00.599Z,45.30
2018-06-08T08:30:00.593Z,43.90
2018-06-08T08:31:00.569Z,44.20
2018-06-08T08:32:00.609Z,44.20
2018-06-08T08:33:00.591Z,43.40
2018-06-08T08:34:00.570Z,43.40
2018-06-08T08:35:00.553Z,45.40
2018-06-08T08:36:00.538Z,44.60
2018-06-08T08:37:00.541Z,44.40
2018-06-08T08:38:00.520Z,45.10
2018-06-08T08:39:00.540Z,42.90
2018-06-08T08:40:00.524Z,44.70
2018-06-08T08:41:00.498Z,45.10
2018-06-08T08:42:00.483Z,43.60
2018-06-08T08:43:00.478Z,42.70
2018-06-08T08:44:00.474Z,44.80
2018-06-08T08:45:00.462Z,46.30
2018-06-08T08:46:00.479Z,48.60
2018-06-08T08:47:00.433Z,49.00
2018-06-08T08:48:00.427Z,50.70
2018-06-08T08:49:00.510Z,50.40
2018-06-08T08:50:00.419Z,49.60
2018-06-08T08:51:00.403Z,53.50
2018-06-08T08:52:00.444Z,54.70
2018-06-08T08:53:00.378Z,55.40
2018-06-08T08:54:00.377Z,51.90
2018-06-08T08:55:00.356Z,55.10
2018-06-08T08:56:00.469Z,57.00
2018-06-08T08:57:00.352Z,59.80
2018-06-08T08:58:00.357Z,61.70
2018-06-08T08:59:00.362Z,58.60
2018-06-08T09:00:00.473Z,60.90
2018-06-08T09:01:00.310Z,60.20
2018-06-08T09:02:00.305Z,61.50
2018-06-08T09:03:00.284Z,62.80
2018-06-08T09:04:00.294Z,62.70
2018-06-08T09:05:00.292Z,63.30
2018-06-08T09:06:00.399Z,63.70
2018-06-08T09:07:00.259Z,64.40
2018-06-08T09:08:00.261Z,61.40
2018-06-08T09:09:00.260Z,66.80
2018-06-08T09:10:00.261Z,65.60
2018-06-08T09:11:00.236Z,64.50
2018-06-08T09:12:00.263Z,64.40
2018-06-08T09:13:00.246Z,64.40
2018-06-08T09:14:00.204Z,59.70
2018-06-08T09:15:00.231Z,60.10
2018-06-08T09:16:00.180Z,62.30
2018-06-08T09:17:00.167Z,59.40
2018-06-08T09:18:00.155Z,60.10
2018-06-08T09:19:00.147Z,57.80
2018-06-08T09:20:00.217Z,58.20
2018-06-08T09:21:00.160Z,60.10
2018-06-08T09:22:00.181Z,57.70
2018-06-08T09:23:00.160Z,55.70
2018-06-08T09:24:00.113Z,58.70
2018-06-08T09:25:00.112Z,56.10
2018-06-08T09:26:00.108Z,54.70
2018-06-08T09:27:00.083Z,52.20
2018-06-08T09:28:00.089Z,51.80
2018-06-08T09:29:00.412Z,50.70
2018-06-08T09:30:00.177Z,52.60
2018-06-08T09:31:00.058Z,51.70
2018-06-08T09:32:00.071Z,51.20
2018-06-08T09:33:00.038Z,48.50
2018-06-08T09:34:00.032Z,51.30
2018-06-08T09:35:00.026Z,51.60
2018-06-08T09:35:59.994Z,51.30
2018-06-08T09:36:59.983Z,52.70
2018-06-08T09:38:00.054Z,53.00
2018-06-08T09:39:00.037Z,54.10
2018-06-08T09:40:00.024Z,55.30
2018-06-08T09:40:59.956Z,53.30
2018-06-08T09:41:59.961Z,53.40
2018-06-08T09:42:59.960Z,54.10
2018-06-08T09:43:59.958Z,54.80
2018-06-08T09:44:59.920Z,52.10
2018-06-08T09:45:59.996Z,57.50
2018-06-08T09:46:59.926Z,53.80
2018-06-08T09:47:59.916Z,54.60
2018-06-08T09:48:59.882Z,53.50
2018-06-08T09:49:59.915Z,52.60
2018-06-08T09:50:59.893Z,50.70
2018-06-08T09:51:59.890Z,53.10
2018-06-08T09:52:59.861Z,53.70
2018-06-08T09:53:59.908Z,51.40
2018-06-08T09:54:59.846Z,50.20
2018-06-08T09:55:59.857Z,50.20
2018-06-08T09:56:59.824Z,50.20
2018-06-08T09:57:59.828Z,52.00
2018-06-08T09:58:59.814Z,51.00
2018-06-08T09:59:59.796Z,51.70
2018-06-08T10:00:59.797Z,51.50
2018-06-08T10:01:59.785Z,50.90
2018-06-08T10:02:59.780Z,52.50
2018-06-08T10:03:59.769Z,49.90
2018-06-08T10:04:59.760Z,48.90
2018-06-08T10:05:59.775Z,49.70
2018-06-08T10:06:59.765Z,47.80
2018-06-08T10:07:59.752Z,47.40
2018-06-08T10:08:59.732Z,48.00
2018-06-08T10:09:59.750Z,46.80
2018-06-08T10:10:59.722Z,47.60
2018-06-08T10:11:59.717Z,49.30
2018-06-08T10:12:59.696Z,48.00
2018-06-08T10:13:59.679Z,50.20
2018-06-08T10:14:59.743Z,49.50
2018-06-08T10:15:59.674Z,49.50
2018-06-08T10:16:59.682Z,48.80
2018-06-08T10:17:59.683Z,49.20
2018-06-08T10:18:59.647Z,49.20
2018-06-08T10:19:59.647Z,50.40
2018-06-08T10:20:59.647Z,47.70
2018-06-08T10:21:59.620Z,50.40
2018-06-08T10:22:59.635Z,51.40
2018-06-08T10:23:59.614Z,50.50
2018-06-08T10:24:59.652Z,49.90
2018-06-08T10:25:59.658Z,53.20
2018-06-08T10:26:59.584Z,52.30
2018-06-08T10:27:59.597Z,51.90
2018-06-08T10:28:59.578Z,49.80
2018-06-08T10:29:59.547Z,50.60
2018-06-08T10:30:59.545Z,49.50
2018-06-08T10:31:59.543Z,50.10
2018-06-08T10:32:59.534Z,51.70
2018-06-08T10:33:59.598Z,55.00
2018-06-08T10:34:59.528Z,62.10
2018-06-08T10:35:59.512Z,52.40
2018-06-08T10:36:59.494Z,52.70
2018-06-08T10:37:59.546Z,52.60
2018-06-08T10:38:59.471Z,52.80
2018-06-08T10:39:59.485Z,51.70
2018-06-08T10:40:59.463Z,50.10
2018-06-08T10:41:59.464Z,49.60
2018-06-08T10:42:59.450Z,54.30
2018-06-08T10:43:59.434Z,52.40
2018-06-08T10:44:59.422Z,51.60
2018-06-08T10:45:59.406Z,53.10
2018-06-08T10:46:59.426Z,53.70
2018-06-08T10:47:59.421Z,54.20
2018-06-08T10:48:59.444Z,51.80
2018-06-08T10:50:00.265Z,55.30
2018-06-08T10:50:59.369Z,55.70
2018-06-08T10:51:59.391Z,55.20
2018-06-08T10:52:59.357Z,56.90
2018-06-08T10:53:59.356Z,59.20
2018-06-08T10:54:59.339Z,59.00
2018-06-08T10:55:59.321Z,59.90
2018-06-08T10:56:59.319Z,63.00
2018-06-08T10:57:59.313Z,63.90
2018-06-08T10:58:59.305Z,64.70
2018-06-08T10:59:59.284Z,68.00
2018-06-08T11:00:59.474Z,66.50
2018-06-08T11:01:59.271Z,71.20
2018-06-08T11:02:59.257Z,71.80
2018-06-08T11:03:59.229Z,73.30
2018-06-08T11:04:59.221Z,73.50
2018-06-08T11:05:59.325Z,75.00
2018-06-08T11:06:59.222Z,76.80
2018-06-08T11:07:59.225Z,78.70
2018-06-08T11:08:59.211Z,78.90
2018-06-08T11:09:59.240Z,80.50
2018-06-08T11:10:59.171Z,83.90
2018-06-08T11:11:59.152Z,85.60
2018-06-08T11:12:59.161Z,86.70
2018-06-08T11:13:59.142Z,87.00
2018-06-08T11:14:59.137Z,90.20
2018-06-08T11:15:59.157Z,89.60
2018-06-08T11:16:59.125Z,94.40
2018-06-08T11:17:59.099Z,96.20
2018-06-08T11:18:59.120Z,91.60
2018-06-08T11:19:59.079Z,93.70
2018-06-08T11:20:59.069Z,92.10
2018-06-08T11:21:59.084Z,92.80
2018-06-08T11:22:59.047Z,91.90
2018-06-08T11:23:59.042Z,97.70
2018-06-08T11:24:59.026Z,95.10
2018-06-08T11:25:59.020Z,95.80
2018-06-08T11:26:59.088Z,94.60
2018-06-08T11:27:59.006Z,98.40
2018-06-08T11:28:58.997Z,95.10
2018-06-08T11:29:58.991Z,97.60
2018-06-08T11:30:58.968Z,99.90
2018-06-08T11:31:58.981Z,97.50
2018-06-08T11:32:58.982Z,95.10
2018-06-08T11:33:58.979Z,93.30
2018-06-08T11:34:58.927Z,92.70
2018-06-08T11:35:58.920Z,96.90
2018-06-08T11:36:58.916Z,100.30
2018-06-08T11:37:58.919Z,99.50
2018-06-08T11:38:58.886Z,104.20
2018-06-08T11:39:58.865Z,99.40
2018-06-08T11:40:58.880Z,103.20
2018-06-08T11:41:58.878Z,105.30
2018-06-08T11:42:58.922Z,110.50
2018-06-08T11:43:58.843Z,111.50
2018-06-08T11:44:58.849Z,115.90
2018-06-08T11:45:58.800Z,116.30
2018-06-08T11:46:58.795Z,124.20
2018-06-08T11:47:58.800Z,124.90
2018-06-08T11:48:59.295Z,125.70
2018-06-08T11:49:58.761Z,135.30
2018-06-08T11:50:58.758Z,131.20
2018-06-08T11:51:58.879Z,131.80
2018-06-08T11:52:58.728Z,134.30
2018-06-08T11:53:58.765Z,138.20
2018-06-08T11:54:58.739Z,130.50
2018-06-08T11:55:58.721Z,133.70
2018-06-08T11:56:58.675Z,130.90
2018-06-08T11:57:58.669Z,131.60
2018-06-08T11:58:58.660Z,137.10
2018-06-08T11:59:58.874Z,141.00
2018-06-08T12:00:58.665Z,143.70
2018-06-08T12:01:58.623Z,147.60
2018-06-08T12:02:58.617Z,138.40
2018-06-08T12:03:58.604Z,146.30
2018-06-08T12:04:58.600Z,148.00
2018-06-08T12:05:58.610Z,149.80
2018-06-08T12:06:58.584Z,138.30
2018-06-08T12:07:58.591Z,132.90
2018-06-08T12:08:58.587Z,141.70
2018-06-08T12:09:58.545Z,146.60
2018-06-08T12:10:58.534Z,142.40
2018-06-08T12:11:58.525Z,143.30
2018-06-08T12:12:58.518Z,153.30
2018-06-08T12:13:58.479Z,161.60
2018-06-08T12:14:58.496Z,150.50
2018-06-08T12:15:58.458Z,153.70
2018-06-08T12:16:58.478Z,160.90
2018-06-08T12:17:58.443Z,162.30
2018-06-08T12:18:58.424Z,165.80
2018-06-08T12:19:58.407Z,171.70
2018-06-08T12:20:58.407Z,156.60
2018-06-08T12:21:58.384Z,153.20
2018-06-08T12:22:58.388Z,149.40
2018-06-08T12:23:58.379Z,153.80
2018-06-08T12:24:58.357Z,140.80
2018-06-08T12:25:58.347Z,138.80
2018-06-08T12:26:58.340Z,133.00
2018-06-08T12:27:58.373Z,138.40
2018-06-08T12:28:58.318Z,135.60
2018-06-08T12:29:58.296Z,139.60
2018-06-08T12:30:58.305Z,131.80
2018-06-08T12:31:58.273Z,130.30
2018-06-08T12:32:58.270Z,129.80
2018-06-08T12:33:58.247Z,132.40
2018-06-08T12:34:58.249Z,127.00
2018-06-08T12:35:58.245Z,123.70
2018-06-08T12:36:58.212Z,126.00
2018-06-08T12:38:01.225Z,127.40
2018-06-08T12:38:58.217Z,125.00
2018-06-08T12:39:58.186Z,127.60
2018-06-08T12:40:58.177Z,121.90
2018-06-08T12:41:58.155Z,121.20
2018-06-08T12:42:58.141Z,118.60
2018-06-08T12:43:58.126Z,111.20
2018-06-08T12:44:58.133Z,110.80
2018-06-08T12:45:58.102Z,107.20
2018-06-08T12:46:58.089Z,107.20
2018-06-08T12:47:58.084Z,108.80
2018-06-08T12:48:58.113Z,113.80
2018-06-08T12:49:58.081Z,110.20
2018-06-08T12:50:58.053Z,111.50
2018-06-08T12:51:58.031Z,110.30
2018-06-08T12:52:58.026Z,108.90
2018-06-08T12:53:58.032Z,106.70
2018-06-08T12:54:58.007Z,106.50
2018-06-08T12:55:58.002Z,105.00
2018-06-08T12:56:58.006Z,106.70
2018-06-08T12:57:57.961Z,105.50
2018-06-08T12:58:57.964Z,100.90
2018-06-08T12:59:57.939Z,96.80
2018-06-08T13:00:57.965Z,92.80
2018-06-08T13:01:57.917Z,91.10
2018-06-08T13:02:57.916Z,94.50
2018-06-08T13:03:57.927Z,98.50